Terminal Aerodrome Forecast
Issued by NWS

Home | Current Version | Previous Version | Graphics & Text | Print | Product List | Glossary On
Versions: 1 2 3 4 5 6 7 8 9 10 11 12 13 14 15 16 17
000
FTUS43 KTOP 172340
TAFFOE
TAF
KFOE 172340Z 1800/1824 17007KT P6SM BKN150
     FM180400 34011KT P6SM SCT050 OVC100
     FM180800 33023G33KT P6SM VCSH OVC012
     FM181600 33022G30KT P6SM FEW030 SCT050=

USA.gov is the U.S. government's official web portal to all federal, state and local government web resources and services.